Terminal Aerodrome Forecast
Issued by NWS Billings, MT

Home | Current Version | Previous Version | Text Only | Print | Product List | Glossary On
Versions: 1 2 3 4 5 6 7 8 9 10 11 12 13 14 15 16 17 18 19 20 21 22 23 24 25 26
000
FTUS45 KBYZ 312209 AAA
TAFBIL
TAF AMD
KBIL 312209Z 3122/0118 26006KT P6SM VCTS SCT090CB SCT200
     FM312300 34010KT P6SM VCTS SCT070CB SCT200
     FM010100 26006KT P6SM FEW100 SCT250=

USA.gov is the U.S. government's official web portal to all federal, state and local government web resources and services.